ハルツーム の空港の天気 - METARとTAF

ハルツーム国際空港 ( HSSS / KRT ) - スーダン ハルツーム
飛行場実況気象(Metar)
観測時間05/26 01:00 CAT (05/25 23:00 UTC)
風向・風速北北西 7m/s
視程10km以上
天気現象
なし
気温33℃
湿度11%
気圧1009hPa
METARHSSS 252300Z 34014KT CAVOK 33/M02 Q1009 NOSIG
過去の天気等 Google飛行場航空写真 Wunderground天気予報

過去48時間のMETAR

飛行場予報(TAF)
発表時間: 5/26 01:00 CAT (5/25 23:00 UTC)
予報対象時間: 26日2時 CAT ~ 27日8時 CAT
風向・風速北北西 4m/s 瞬間風速 9m/s
視程10km以上
なし
HSSS 252300Z 2600/2706 34008G18KT CAVOK